sensor_id;sensor_type;location;lat;lon;timestamp;temperature;humidity
10660;DHT22;5378;53.206;13.316;2023-03-01T00:00:22;-1.90;99.90
10660;DHT22;5378;53.206;13.316;2023-03-01T00:03:09;-1.90;99.90
10660;DHT22;5378;53.206;13.316;2023-03-01T00:05:57;-1.90;99.90
10660;DHT22;5378;53.206;13.316;2023-03-01T00:08:44;-1.80;99.90
10660;DHT22;5378;53.206;13.316;2023-03-01T00:11:33;-1.90;99.90
10660;DHT22;5378;53.206;13.316;2023-03-01T00:14:20;-1.90;99.90
10660;DHT22;5378;53.206;13.316;2023-03-01T00:17:07;-1.90;99.90
10660;DHT22;5378;53.206;13.316;2023-03-01T00:19:54;-1.90;99.90
10660;DHT22;5378;53.206;13.316;2023-03-01T00:22:42;-1.90;99.90
10660;DHT22;5378;53.206;13.316;2023-03-01T00:25:29;-2.00;99.90
10660;DHT22;5378;53.206;13.316;2023-03-01T00:28:18;-2.00;99.90
10660;DHT22;5378;53.206;13.316;2023-03-01T00:31:07;-2.10;99.90
10660;DHT22;5378;53.206;13.316;2023-03-01T00:33:55;-2.10;99.90
10660;DHT22;5378;53.206;13.316;2023-03-01T00:36:43;-2.00;99.90
10660;DHT22;5378;53.206;13.316;2023-03-01T00:39:30;-2.00;99.90
10660;DHT22;5378;53.206;13.316;2023-03-01T00:42:17;-2.10;99.90
10660;DHT22;5378;53.206;13.316;2023-03-01T00:45:07;-2.00;99.90
10660;DHT22;5378;53.206;13.316;2023-03-01T00:47:54;-2.00;99.90
10660;DHT22;5378;53.206;13.316;2023-03-01T00:50:41;-2.10;99.90
10660;DHT22;5378;53.206;13.316;2023-03-01T00:53:28;-2.10;99.90
10660;DHT22;5378;53.206;13.316;2023-03-01T00:56:15;-2.20;99.90
10660;DHT22;5378;53.206;13.316;2023-03-01T00:59:02;-2.20;99.90
10660;DHT22;5378;53.206;13.316;2023-03-01T01:01:50;-2.30;99.90
10660;DHT22;5378;53.206;13.316;2023-03-01T01:04:37;-2.30;99.90
10660;DHT22;5378;53.206;13.316;2023-03-01T01:07:24;-2.20;99.90
10660;DHT22;5378;53.206;13.316;2023-03-01T01:10:11;-2.20;99.90
10660;DHT22;5378;53.206;13.316;2023-03-01T01:13:02;-2.20;99.90
10660;DHT22;5378;53.206;13.316;2023-03-01T01:15:49;-2.20;99.90
10660;DHT22;5378;53.206;13.316;2023-03-01T01:18:38;-2.30;99.90
10660;DHT22;5378;53.206;13.316;2023-03-01T01:21:26;-2.30;99.90
10660;DHT22;5378;53.206;13.316;2023-03-01T01:24:15;-2.20;99.90
10660;DHT22;5378;53.206;13.316;2023-03-01T01:27:02;-2.20;99.90
10660;DHT22;5378;53.206;13.316;2023-03-01T01:29:49;-2.20;99.90
10660;DHT22;5378;53.206;13.316;2023-03-01T01:32:36;-2.30;99.90
10660;DHT22;5378;53.206;13.316;2023-03-01T01:35:24;-2.30;99.90
10660;DHT22;5378;53.206;13.316;2023-03-01T01:38:12;-2.20;99.90
10660;DHT22;5378;53.206;13.316;2023-03-01T01:40:59;-2.20;99.90
10660;DHT22;5378;53.206;13.316;2023-03-01T01:43:48;-2.20;99.90
10660;DHT22;5378;53.206;13.316;2023-03-01T01:46:37;-2.30;99.90
10660;DHT22;5378;53.206;13.316;2023-03-01T01:49:31;-2.20;99.90
10660;DHT22;5378;53.206;13.316;2023-03-01T01:52:22;-2.20;99.90
10660;DHT22;5378;53.206;13.316;2023-03-01T01:55:14;-2.30;99.90
10660;DHT22;5378;53.206;13.316;2023-03-01T01:58:04;-2.30;99.90
10660;DHT22;5378;53.206;13.316;2023-03-01T02:00:54;-2.30;99.90
10660;DHT22;5378;53.206;13.316;2023-03-01T02:03:42;-2.30;99.90
10660;DHT22;5378;53.206;13.316;2023-03-01T02:06:32;-2.30;99.90
10660;DHT22;5378;53.206;13.316;2023-03-01T02:09:24;-2.30;99.90
10660;DHT22;5378;53.206;13.316;2023-03-01T02:12:13;-2.40;99.90
10660;DHT22;5378;53.206;13.316;2023-03-01T02:15:00;-2.30;99.90
10660;DHT22;5378;53.206;13.316;2023-03-01T02:17:48;-2.30;99.90
10660;DHT22;5378;53.206;13.316;2023-03-01T02:20:44;-2.30;99.90
10660;DHT22;5378;53.206;13.316;2023-03-01T02:23:35;-2.40;99.90
10660;DHT22;5378;53.206;13.316;2023-03-01T02:26:30;-2.40;99.90
10660;DHT22;5378;53.206;13.316;2023-03-01T02:29:20;-2.40;99.90
10660;DHT22;5378;53.206;13.316;2023-03-01T02:32:08;-2.40;99.90
10660;DHT22;5378;53.206;13.316;2023-03-01T02:34:56;-2.50;99.90
10660;DHT22;5378;53.206;13.316;2023-03-01T02:37:44;-2.40;99.90
10660;DHT22;5378;53.206;13.316;2023-03-01T02:40:33;-2.40;99.90
10660;DHT22;5378;53.206;13.316;2023-03-01T02:43:23;-2.40;99.90
10660;DHT22;5378;53.206;13.316;2023-03-01T02:46:16;-2.40;99.90
10660;DHT22;5378;53.206;13.316;2023-03-01T02:49:19;-2.50;99.90
10660;DHT22;5378;53.206;13.316;2023-03-01T02:52:16;-2.50;99.90
10660;DHT22;5378;53.206;13.316;2023-03-01T02:55:09;-2.50;99.90
10660;DHT22;5378;53.206;13.316;2023-03-01T02:57:59;-2.50;99.90
10660;DHT22;5378;53.206;13.316;2023-03-01T03:00:50;-2.50;99.90
10660;DHT22;5378;53.206;13.316;2023-03-01T03:03:39;-2.40;99.90
10660;DHT22;5378;53.206;13.316;2023-03-01T03:06:26;-2.50;99.90
10660;DHT22;5378;53.206;13.316;2023-03-01T03:09:13;-2.50;99.90
10660;DHT22;5378;53.206;13.316;2023-03-01T03:12:03;-2.60;99.90
10660;DHT22;5378;53.206;13.316;2023-03-01T03:14:50;-2.50;99.90
10660;DHT22;5378;53.206;13.316;2023-03-01T03:17:38;-2.60;99.90
10660;DHT22;5378;53.206;13.316;2023-03-01T03:20:27;-2.60;99.90
10660;DHT22;5378;53.206;13.316;2023-03-01T03:23:15;-2.60;99.90
10660;DHT22;5378;53.206;13.316;2023-03-01T03:26:03;-2.60;99.90
10660;DHT22;5378;53.206;13.316;2023-03-01T03:28:50;-2.60;99.90
10660;DHT22;5378;53.206;13.316;2023-03-01T03:31:38;-2.60;99.90
10660;DHT22;5378;53.206;13.316;2023-03-01T03:34:25;-2.60;99.90
10660;DHT22;5378;53.206;13.316;2023-03-01T03:37:13;-2.60;99.90
10660;DHT22;5378;53.206;13.316;2023-03-01T03:40:14;-2.60;99.90
10660;DHT22;5378;53.206;13.316;2023-03-01T03:43:02;-2.60;99.90
10660;DHT22;5378;53.206;13.316;2023-03-01T03:45:50;-2.60;99.90
10660;DHT22;5378;53.206;13.316;2023-03-01T03:48:39;-2.50;99.90
10660;DHT22;5378;53.206;13.316;2023-03-01T03:51:26;-2.60;99.90
10660;DHT22;5378;53.206;13.316;2023-03-01T03:54:15;-2.50;99.90
10660;DHT22;5378;53.206;13.316;2023-03-01T03:57:03;-2.50;99.90
10660;DHT22;5378;53.206;13.316;2023-03-01T03:59:50;-2.50;99.90
10660;DHT22;5378;53.206;13.316;2023-03-01T04:02:37;-2.60;99.90
10660;DHT22;5378;53.206;13.316;2023-03-01T04:05:24;-2.50;99.90
10660;DHT22;5378;53.206;13.316;2023-03-01T04:08:13;-2.40;99.90
10660;DHT22;5378;53.206;13.316;2023-03-01T04:11:03;-2.30;99.90
10660;DHT22;5378;53.206;13.316;2023-03-01T04:14:11;-2.30;99.90
10660;DHT22;5378;53.206;13.316;2023-03-01T04:16:58;-2.40;99.90
10660;DHT22;5378;53.206;13.316;2023-03-01T04:19:45;-2.50;99.90
10660;DHT22;5378;53.206;13.316;2023-03-01T04:22:34;-2.40;99.90
10660;DHT22;5378;53.206;13.316;2023-03-01T04:25:21;-2.40;99.90
10660;DHT22;5378;53.206;13.316;2023-03-01T04:28:12;-2.50;99.90
10660;DHT22;5378;53.206;13.316;2023-03-01T04:31:04;-2.50;99.90
10660;DHT22;5378;53.206;13.316;2023-03-01T04:33:59;-2.50;99.90
10660;DHT22;5378;53.206;13.316;2023-03-01T04:36:46;-2.50;99.90
10660;DHT22;5378;53.206;13.316;2023-03-01T04:39:33;-2.50;99.90
10660;DHT22;5378;53.206;13.316;2023-03-01T04:42:31;-2.40;99.90
10660;DHT22;5378;53.206;13.316;2023-03-01T04:45:19;-2.40;99.90
10660;DHT22;5378;53.206;13.316;2023-03-01T04:48:07;-2.50;99.90
10660;DHT22;5378;53.206;13.316;2023-03-01T04:50:54;-2.40;99.90
10660;DHT22;5378;53.206;13.316;2023-03-01T04:53:41;-2.40;99.90
10660;DHT22;5378;53.206;13.316;2023-03-01T04:56:28;-2.40;99.90
10660;DHT22;5378;53.206;13.316;2023-03-01T04:59:16;-2.50;99.90
10660;DHT22;5378;53.206;13.316;2023-03-01T05:02:04;-2.50;99.90
10660;DHT22;5378;53.206;13.316;2023-03-01T05:04:52;-2.50;99.90
10660;DHT22;5378;53.206;13.316;2023-03-01T05:07:43;-2.60;99.90
10660;DHT22;5378;53.206;13.316;2023-03-01T05:10:31;-2.60;99.90
10660;DHT22;5378;53.206;13.316;2023-03-01T05:13:19;-2.60;99.90
10660;DHT22;5378;53.206;13.316;2023-03-01T05:16:09;-2.50;99.90
10660;DHT22;5378;53.206;13.316;2023-03-01T05:18:59;-2.60;99.90
10660;DHT22;5378;53.206;13.316;2023-03-01T05:21:46;-2.60;99.90
10660;DHT22;5378;53.206;13.316;2023-03-01T05:24:49;-2.60;99.90
10660;DHT22;5378;53.206;13.316;2023-03-01T05:27:36;-2.80;99.90
10660;DHT22;5378;53.206;13.316;2023-03-01T05:30:24;-2.70;99.90
10660;DHT22;5378;53.206;13.316;2023-03-01T05:33:12;-2.70;99.90
10660;DHT22;5378;53.206;13.316;2023-03-01T05:36:01;-2.70;99.90
10660;DHT22;5378;53.206;13.316;2023-03-01T05:38:48;-2.70;99.90
10660;DHT22;5378;53.206;13.316;2023-03-01T05:41:35;-2.70;99.90
10660;DHT22;5378;53.206;13.316;2023-03-01T05:44:23;-2.60;99.90
10660;DHT22;5378;53.206;13.316;2023-03-01T05:47:11;-2.70;99.90
10660;DHT22;5378;53.206;13.316;2023-03-01T05:49:58;-2.70;99.90
10660;DHT22;5378;53.206;13.316;2023-03-01T05:52:49;-2.70;99.90
10660;DHT22;5378;53.206;13.316;2023-03-01T05:55:37;-2.60;99.90
10660;DHT22;5378;53.206;13.316;2023-03-01T05:58:24;-2.60;99.90
10660;DHT22;5378;53.206;13.316;2023-03-01T06:01:12;-2.60;99.90
10660;DHT22;5378;53.206;13.316;2023-03-01T06:03:59;-2.70;99.90
10660;DHT22;5378;53.206;13.316;2023-03-01T06:06:46;-2.60;99.90
10660;DHT22;5378;53.206;13.316;2023-03-01T06:09:35;-2.70;99.90
10660;DHT22;5378;53.206;13.316;2023-03-01T06:12:22;-2.60;99.90
10660;DHT22;5378;53.206;13.316;2023-03-01T06:15:10;-2.60;99.90
10660;DHT22;5378;53.206;13.316;2023-03-01T06:17:57;-2.60;99.90
10660;DHT22;5378;53.206;13.316;2023-03-01T06:20:52;-2.50;99.90
10660;DHT22;5378;53.206;13.316;2023-03-01T06:23:39;-2.50;99.90
10660;DHT22;5378;53.206;13.316;2023-03-01T06:26:27;-2.60;99.90
10660;DHT22;5378;53.206;13.316;2023-03-01T06:29:15;-2.40;99.90
10660;DHT22;5378;53.206;13.316;2023-03-01T06:32:02;-2.20;99.90
10660;DHT22;5378;53.206;13.316;2023-03-01T06:34:49;-2.20;99.90
10660;DHT22;5378;53.206;13.316;2023-03-01T06:37:37;-2.00;99.90
10660;DHT22;5378;53.206;13.316;2023-03-01T06:40:24;-1.80;99.90
10660;DHT22;5378;53.206;13.316;2023-03-01T06:43:12;-1.70;99.90
10660;DHT22;5378;53.206;13.316;2023-03-01T06:45:59;-1.70;99.90
10660;DHT22;5378;53.206;13.316;2023-03-01T06:48:47;-1.70;99.90
10660;DHT22;5378;53.206;13.316;2023-03-01T06:51:35;-1.70;99.90
10660;DHT22;5378;53.206;13.316;2023-03-01T06:54:23;-1.60;99.90
10660;DHT22;5378;53.206;13.316;2023-03-01T06:57:10;-1.60;99.90
10660;DHT22;5378;53.206;13.316;2023-03-01T06:59:58;-1.60;99.90
10660;DHT22;5378;53.206;13.316;2023-03-01T07:02:45;-1.50;99.90
10660;DHT22;5378;53.206;13.316;2023-03-01T07:05:33;-1.40;99.90
10660;DHT22;5378;53.206;13.316;2023-03-01T07:08:20;-1.40;99.90
10660;DHT22;5378;53.206;13.316;2023-03-01T07:11:07;-1.30;99.90
10660;DHT22;5378;53.206;13.316;2023-03-01T07:13:54;-1.30;99.90
10660;DHT22;5378;53.206;13.316;2023-03-01T07:16:43;-1.20;99.90
10660;DHT22;5378;53.206;13.316;2023-03-01T07:19:30;-1.20;99.90
10660;DHT22;5378;53.206;13.316;2023-03-01T07:22:17;-1.10;99.90
10660;DHT22;5378;53.206;13.316;2023-03-01T07:25:05;-1.10;99.90
10660;DHT22;5378;53.206;13.316;2023-03-01T07:27:52;-0.90;99.90
10660;DHT22;5378;53.206;13.316;2023-03-01T07:30:39;-0.90;99.90
10660;DHT22;5378;53.206;13.316;2023-03-01T07:33:28;-0.80;99.90
10660;DHT22;5378;53.206;13.316;2023-03-01T07:36:15;-0.80;99.90
10660;DHT22;5378;53.206;13.316;2023-03-01T07:39:03;-0.70;99.90
10660;DHT22;5378;53.206;13.316;2023-03-01T07:41:50;-0.60;99.90
10660;DHT22;5378;53.206;13.316;2023-03-01T07:44:40;-0.40;99.90
10660;DHT22;5378;53.206;13.316;2023-03-01T07:47:27;-0.30;99.90
10660;DHT22;5378;53.206;13.316;2023-03-01T07:50:16;-0.30;99.90
10660;DHT22;5378;53.206;13.316;2023-03-01T07:53:03;-0.20;99.90
10660;DHT22;5378;53.206;13.316;2023-03-01T07:55:59;0.20;99.90
10660;DHT22;5378;53.206;13.316;2023-03-01T07:58:46;0.30;99.90
10660;DHT22;5378;53.206;13.316;2023-03-01T08:01:35;0.50;99.90
10660;DHT22;5378;53.206;13.316;2023-03-01T08:04:23;0.80;99.90
10660;DHT22;5378;53.206;13.316;2023-03-01T08:07:12;1.10;99.90
10660;DHT22;5378;53.206;13.316;2023-03-01T08:09:59;1.30;99.90
10660;DHT22;5378;53.206;13.316;2023-03-01T08:12:46;1.40;99.90
10660;DHT22;5378;53.206;13.316;2023-03-01T08:15:33;1.40;99.90
10660;DHT22;5378;53.206;13.316;2023-03-01T08:18:21;1.40;99.90
10660;DHT22;5378;53.206;13.316;2023-03-01T08:21:11;1.50;99.90
10660;DHT22;5378;53.206;13.316;2023-03-01T08:23:59;1.50;99.90
10660;DHT22;5378;53.206;13.316;2023-03-01T08:26:46;1.60;99.90
10660;DHT22;5378;53.206;13.316;2023-03-01T08:29:34;1.80;99.90
10660;DHT22;5378;53.206;13.316;2023-03-01T08:32:21;2.10;99.90
10660;DHT22;5378;53.206;13.316;2023-03-01T08:35:08;2.50;99.90
10660;DHT22;5378;53.206;13.316;2023-03-01T08:37:55;3.00;99.90
10660;DHT22;5378;53.206;13.316;2023-03-01T08:40:43;3.70;99.90
10660;DHT22;5378;53.206;13.316;2023-03-01T08:43:30;4.50;99.90
10660;DHT22;5378;53.206;13.316;2023-03-01T08:46:17;5.00;99.90
10660;DHT22;5378;53.206;13.316;2023-03-01T08:49:05;5.30;99.90
10660;DHT22;5378;53.206;13.316;2023-03-01T08:51:52;5.60;99.90
10660;DHT22;5378;53.206;13.316;2023-03-01T08:54:40;5.70;99.90
10660;DHT22;5378;53.206;13.316;2023-03-01T08:57:28;5.80;99.90
10660;DHT22;5378;53.206;13.316;2023-03-01T09:00:16;5.90;99.90
10660;DHT22;5378;53.206;13.316;2023-03-01T09:03:03;5.90;99.90
10660;DHT22;5378;53.206;13.316;2023-03-01T09:05:51;5.80;99.90
10660;DHT22;5378;53.206;13.316;2023-03-01T09:08:39;5.70;99.90
10660;DHT22;5378;53.206;13.316;2023-03-01T09:11:28;5.70;99.90
10660;DHT22;5378;53.206;13.316;2023-03-01T09:14:16;5.50;99.90
10660;DHT22;5378;53.206;13.316;2023-03-01T09:17:03;5.40;99.90
10660;DHT22;5378;53.206;13.316;2023-03-01T09:19:51;5.30;99.90
10660;DHT22;5378;53.206;13.316;2023-03-01T09:22:38;5.10;99.90
10660;DHT22;5378;53.206;13.316;2023-03-01T09:25:25;4.90;99.90
10660;DHT22;5378;53.206;13.316;2023-03-01T09:28:12;4.70;99.90
10660;DHT22;5378;53.206;13.316;2023-03-01T09:31:15;4.50;99.90
10660;DHT22;5378;53.206;13.316;2023-03-01T09:34:03;4.40;99.90
10660;DHT22;5378;53.206;13.316;2023-03-01T09:36:50;4.30;99.90
10660;DHT22;5378;53.206;13.316;2023-03-01T09:39:37;4.30;99.90
10660;DHT22;5378;53.206;13.316;2023-03-01T09:42:25;4.30;99.90
10660;DHT22;5378;53.206;13.316;2023-03-01T09:45:22;4.40;99.90
10660;DHT22;5378;53.206;13.316;2023-03-01T09:48:16;4.30;99.90
10660;DHT22;5378;53.206;13.316;2023-03-01T09:51:07;4.30;99.90
10660;DHT22;5378;53.206;13.316;2023-03-01T09:53:55;4.30;99.90
10660;DHT22;5378;53.206;13.316;2023-03-01T09:56:53;4.30;99.90
10660;DHT22;5378;53.206;13.316;2023-03-01T09:59:56;4.30;99.90
10660;DHT22;5378;53.206;13.316;2023-03-01T10:02:52;4.30;99.90
10660;DHT22;5378;53.206;13.316;2023-03-01T10:05:50;4.30;99.90
10660;DHT22;5378;53.206;13.316;2023-03-01T10:08:42;4.30;99.90
10660;DHT22;5378;53.206;13.316;2023-03-01T10:11:31;4.40;99.90
10660;DHT22;5378;53.206;13.316;2023-03-01T10:14:29;4.40;99.90
10660;DHT22;5378;53.206;13.316;2023-03-01T10:17:24;4.50;99.90
10660;DHT22;5378;53.206;13.316;2023-03-01T10:20:18;4.50;99.90
10660;DHT22;5378;53.206;13.316;2023-03-01T10:23:08;4.60;99.90
10660;DHT22;5378;53.206;13.316;2023-03-01T10:26:12;4.60;99.90
10660;DHT22;5378;53.206;13.316;2023-03-01T10:29:04;4.70;99.90
10660;DHT22;5378;53.206;13.316;2023-03-01T10:31:55;4.70;99.90
10660;DHT22;5378;53.206;13.316;2023-03-01T10:34:42;4.70;99.90
10660;DHT22;5378;53.206;13.316;2023-03-01T10:37:29;4.70;99.90
10660;DHT22;5378;53.206;13.316;2023-03-01T10:40:17;4.70;99.90
10660;DHT22;5378;53.206;13.316;2023-03-01T10:43:05;4.80;99.90
10660;DHT22;5378;53.206;13.316;2023-03-01T10:45:53;4.80;99.90
10660;DHT22;5378;53.206;13.316;2023-03-01T10:48:40;4.90;99.90
10660;DHT22;5378;53.206;13.316;2023-03-01T10:51:27;4.90;99.90
10660;DHT22;5378;53.206;13.316;2023-03-01T10:54:27;4.90;99.90
10660;DHT22;5378;53.206;13.316;2023-03-01T10:57:28;5.00;99.90
10660;DHT22;5378;53.206;13.316;2023-03-01T11:00:22;5.10;99.90
10660;DHT22;5378;53.206;13.316;2023-03-01T11:03:12;5.20;99.90
10660;DHT22;5378;53.206;13.316;2023-03-01T11:06:12;5.20;99.90
10660;DHT22;5378;53.206;13.316;2023-03-01T11:09:14;5.30;99.90
10660;DHT22;5378;53.206;13.316;2023-03-01T11:12:03;5.20;99.90
10660;DHT22;5378;53.206;13.316;2023-03-01T11:14:54;5.20;99.90
10660;DHT22;5378;53.206;13.316;2023-03-01T11:17:43;5.30;99.90
10660;DHT22;5378;53.206;13.316;2023-03-01T11:20:39;5.30;99.90
10660;DHT22;5378;53.206;13.316;2023-03-01T11:23:28;5.40;99.90
10660;DHT22;5378;53.206;13.316;2023-03-01T11:26:15;5.40;99.90
10660;DHT22;5378;53.206;13.316;2023-03-01T11:29:06;5.40;99.90
10660;DHT22;5378;53.206;13.316;2023-03-01T11:31:58;5.50;99.90
10660;DHT22;5378;53.206;13.316;2023-03-01T11:34:49;5.50;99.90
10660;DHT22;5378;53.206;13.316;2023-03-01T11:37:44;5.50;99.90
10660;DHT22;5378;53.206;13.316;2023-03-01T11:40:35;5.60;99.90
10660;DHT22;5378;53.206;13.316;2023-03-01T11:43:30;5.60;99.90
10660;DHT22;5378;53.206;13.316;2023-03-01T11:46:37;5.50;99.90
10660;DHT22;5378;53.206;13.316;2023-03-01T11:49:43;5.50;99.90
10660;DHT22;5378;53.206;13.316;2023-03-01T11:52:39;5.60;99.90
10660;DHT22;5378;53.206;13.316;2023-03-01T11:55:39;5.70;99.90
10660;DHT22;5378;53.206;13.316;2023-03-01T11:58:47;5.80;99.90
10660;DHT22;5378;53.206;13.316;2023-03-01T12:01:47;5.90;99.90
10660;DHT22;5378;53.206;13.316;2023-03-01T12:05:03;6.00;99.90
10660;DHT22;5378;53.206;13.316;2023-03-01T12:07:59;6.00;99.90
10660;DHT22;5378;53.206;13.316;2023-03-01T12:10:54;6.10;99.90
10660;DHT22;5378;53.206;13.316;2023-03-01T12:14:06;6.20;99.90
10660;DHT22;5378;53.206;13.316;2023-03-01T12:17:20;6.30;99.90
10660;DHT22;5378;53.206;13.316;2023-03-01T12:20:24;6.40;99.90
10660;DHT22;5378;53.206;13.316;2023-03-01T12:23:25;6.50;99.90
10660;DHT22;5378;53.206;13.316;2023-03-01T12:26:21;6.40;99.90
10660;DHT22;5378;53.206;13.316;2023-03-01T12:29:23;6.50;99.90
10660;DHT22;5378;53.206;13.316;2023-03-01T12:32:28;6.60;99.90
10660;DHT22;5378;53.206;13.316;2023-03-01T12:35:50;6.90;99.90
10660;DHT22;5378;53.206;13.316;2023-03-01T12:38:42;6.90;99.90
10660;DHT22;5378;53.206;13.316;2023-03-01T12:41:40;6.90;99.90
10660;DHT22;5378;53.206;13.316;2023-03-01T12:44:42;7.00;99.90
10660;DHT22;5378;53.206;13.316;2023-03-01T12:47:46;7.20;99.90
10660;DHT22;5378;53.206;13.316;2023-03-01T12:50:41;7.10;99.90
10660;DHT22;5378;53.206;13.316;2023-03-01T12:53:31;7.10;99.90
10660;DHT22;5378;53.206;13.316;2023-03-01T12:56:21;7.20;99.90
10660;DHT22;5378;53.206;13.316;2023-03-01T12:59:14;7.10;99.90
10660;DHT22;5378;53.206;13.316;2023-03-01T13:02:09;7.20;99.90
10660;DHT22;5378;53.206;13.316;2023-03-01T13:05:10;7.10;99.90
10660;DHT22;5378;53.206;13.316;2023-03-01T13:08:09;7.20;99.90
10660;DHT22;5378;53.206;13.316;2023-03-01T13:11:04;7.40;99.90
10660;DHT22;5378;53.206;13.316;2023-03-01T13:13:51;7.50;99.90
10660;DHT22;5378;53.206;13.316;2023-03-01T13:16:41;7.60;99.90
10660;DHT22;5378;53.206;13.316;2023-03-01T13:19:30;7.70;99.90
10660;DHT22;5378;53.206;13.316;2023-03-01T13:22:30;7.60;99.90
10660;DHT22;5378;53.206;13.316;2023-03-01T13:25:20;7.50;99.90
10660;DHT22;5378;53.206;13.316;2023-03-01T13:28:36;7.60;99.90
10660;DHT22;5378;53.206;13.316;2023-03-01T13:31:59;7.60;99.90
10660;DHT22;5378;53.206;13.316;2023-03-01T13:34:57;7.60;99.90
10660;DHT22;5378;53.206;13.316;2023-03-01T13:37:44;7.50;99.90
10660;DHT22;5378;53.206;13.316;2023-03-01T13:40:58;7.40;99.90
10660;DHT22;5378;53.206;13.316;2023-03-01T13:43:46;7.50;99.90
10660;DHT22;5378;53.206;13.316;2023-03-01T13:46:33;7.50;99.90
10660;DHT22;5378;53.206;13.316;2023-03-01T13:49:23;7.50;99.90
10660;DHT22;5378;53.206;13.316;2023-03-01T13:52:36;7.50;99.90
10660;DHT22;5378;53.206;13.316;2023-03-01T13:55:30;7.60;99.90
10660;DHT22;5378;53.206;13.316;2023-03-01T13:58:24;7.50;99.90
10660;DHT22;5378;53.206;13.316;2023-03-01T14:01:21;7.40;99.90
10660;DHT22;5378;53.206;13.316;2023-03-01T14:04:22;7.30;99.90
10660;DHT22;5378;53.206;13.316;2023-03-01T14:07:10;7.30;99.90
10660;DHT22;5378;53.206;13.316;2023-03-01T14:10:02;7.50;99.90
10660;DHT22;5378;53.206;13.316;2023-03-01T14:12:53;7.60;99.90
10660;DHT22;5378;53.206;13.316;2023-03-01T14:15:54;7.60;99.90
10660;DHT22;5378;53.206;13.316;2023-03-01T14:18:53;7.50;99.90
10660;DHT22;5378;53.206;13.316;2023-03-01T14:21:44;7.50;99.90
10660;DHT22;5378;53.206;13.316;2023-03-01T14:24:34;7.60;99.90
10660;DHT22;5378;53.206;13.316;2023-03-01T14:27:23;7.60;99.90
10660;DHT22;5378;53.206;13.316;2023-03-01T14:30:15;7.60;99.90
10660;DHT22;5378;53.206;13.316;2023-03-01T14:33:20;7.60;99.90
10660;DHT22;5378;53.206;13.316;2023-03-01T14:36:26;7.50;99.90
10660;DHT22;5378;53.206;13.316;2023-03-01T14:39:18;7.60;99.90
10660;DHT22;5378;53.206;13.316;2023-03-01T14:42:07;7.70;99.90
10660;DHT22;5378;53.206;13.316;2023-03-01T14:45:01;7.70;99.90
10660;DHT22;5378;53.206;13.316;2023-03-01T14:47:49;7.70;99.90
10660;DHT22;5378;53.206;13.316;2023-03-01T14:50:42;7.70;99.90
10660;DHT22;5378;53.206;13.316;2023-03-01T14:53:30;7.70;99.90
10660;DHT22;5378;53.206;13.316;2023-03-01T14:56:24;7.70;99.90
10660;DHT22;5378;53.206;13.316;2023-03-01T14:59:12;7.70;99.90
10660;DHT22;5378;53.206;13.316;2023-03-01T15:01:59;7.80;99.90
10660;DHT22;5378;53.206;13.316;2023-03-01T15:04:49;7.80;99.90
10660;DHT22;5378;53.206;13.316;2023-03-01T15:07:40;7.80;99.90
10660;DHT22;5378;53.206;13.316;2023-03-01T15:10:30;7.70;99.90
10660;DHT22;5378;53.206;13.316;2023-03-01T15:13:22;7.80;99.90
10660;DHT22;5378;53.206;13.316;2023-03-01T15:16:11;7.70;99.90
10660;DHT22;5378;53.206;13.316;2023-03-01T15:19:00;7.60;99.90
10660;DHT22;5378;53.206;13.316;2023-03-01T15:21:49;7.70;99.90
10660;DHT22;5378;53.206;13.316;2023-03-01T15:24:37;7.60;99.90
10660;DHT22;5378;53.206;13.316;2023-03-01T15:27:25;7.60;99.90
10660;DHT22;5378;53.206;13.316;2023-03-01T15:30:17;7.70;99.90
10660;DHT22;5378;53.206;13.316;2023-03-01T15:33:25;7.60;99.90
10660;DHT22;5378;53.206;13.316;2023-03-01T15:36:36;7.60;99.90
10660;DHT22;5378;53.206;13.316;2023-03-01T15:39:32;7.50;99.90
10660;DHT22;5378;53.206;13.316;2023-03-01T15:42:37;7.50;99.90
10660;DHT22;5378;53.206;13.316;2023-03-01T15:45:26;7.40;99.90
10660;DHT22;5378;53.206;13.316;2023-03-01T15:48:18;7.40;99.90
10660;DHT22;5378;53.206;13.316;2023-03-01T15:51:12;7.40;99.90
10660;DHT22;5378;53.206;13.316;2023-03-01T15:54:02;7.40;99.90
10660;DHT22;5378;53.206;13.316;2023-03-01T15:56:50;7.40;99.90
10660;DHT22;5378;53.206;13.316;2023-03-01T15:59:38;7.40;99.90
10660;DHT22;5378;53.206;13.316;2023-03-01T16:02:26;7.30;99.90
10660;DHT22;5378;53.206;13.316;2023-03-01T16:05:18;7.30;99.90
10660;DHT22;5378;53.206;13.316;2023-03-01T16:08:06;7.20;99.90
10660;DHT22;5378;53.206;13.316;2023-03-01T16:10:54;7.20;99.90
10660;DHT22;5378;53.206;13.316;2023-03-01T16:13:41;7.10;99.90
10660;DHT22;5378;53.206;13.316;2023-03-01T16:16:29;7.10;99.90
10660;DHT22;5378;53.206;13.316;2023-03-01T16:19:17;7.10;99.90
10660;DHT22;5378;53.206;13.316;2023-03-01T16:22:04;6.90;99.90
10660;DHT22;5378;53.206;13.316;2023-03-01T16:24:51;6.80;99.90
10660;DHT22;5378;53.206;13.316;2023-03-01T16:27:41;6.60;99.90
10660;DHT22;5378;53.206;13.316;2023-03-01T16:30:28;6.50;99.90
10660;DHT22;5378;53.206;13.316;2023-03-01T16:33:17;6.40;99.90
10660;DHT22;5378;53.206;13.316;2023-03-01T16:36:11;6.30;99.90
10660;DHT22;5378;53.206;13.316;2023-03-01T16:38:59;6.20;99.90
10660;DHT22;5378;53.206;13.316;2023-03-01T16:41:48;6.10;99.90
10660;DHT22;5378;53.206;13.316;2023-03-01T16:44:35;6.00;99.90
10660;DHT22;5378;53.206;13.316;2023-03-01T16:47:23;5.80;99.90
10660;DHT22;5378;53.206;13.316;2023-03-01T16:50:11;5.70;99.90
10660;DHT22;5378;53.206;13.316;2023-03-01T16:52:58;5.60;99.90
10660;DHT22;5378;53.206;13.316;2023-03-01T16:55:52;5.50;99.90
10660;DHT22;5378;53.206;13.316;2023-03-01T16:58:40;5.30;99.90
10660;DHT22;5378;53.206;13.316;2023-03-01T17:01:27;5.10;99.90
10660;DHT22;5378;53.206;13.316;2023-03-01T17:04:19;5.00;99.90
10660;DHT22;5378;53.206;13.316;2023-03-01T17:07:07;4.80;99.90
10660;DHT22;5378;53.206;13.316;2023-03-01T17:09:54;4.70;99.90
10660;DHT22;5378;53.206;13.316;2023-03-01T17:12:41;4.50;99.90
10660;DHT22;5378;53.206;13.316;2023-03-01T17:15:28;4.40;99.90
10660;DHT22;5378;53.206;13.316;2023-03-01T17:18:15;4.20;99.90
10660;DHT22;5378;53.206;13.316;2023-03-01T17:21:03;4.10;99.90
10660;DHT22;5378;53.206;13.316;2023-03-01T17:23:54;3.90;99.90
10660;DHT22;5378;53.206;13.316;2023-03-01T17:26:42;3.90;99.90
10660;DHT22;5378;53.206;13.316;2023-03-01T17:29:29;3.80;99.90
10660;DHT22;5378;53.206;13.316;2023-03-01T17:32:16;3.80;99.90
10660;DHT22;5378;53.206;13.316;2023-03-01T17:35:04;3.70;99.90
10660;DHT22;5378;53.206;13.316;2023-03-01T17:37:52;3.70;99.90
10660;DHT22;5378;53.206;13.316;2023-03-01T17:40:41;3.60;99.90
10660;DHT22;5378;53.206;13.316;2023-03-01T17:43:31;3.60;99.90
10660;DHT22;5378;53.206;13.316;2023-03-01T17:46:19;3.60;99.90
10660;DHT22;5378;53.206;13.316;2023-03-01T17:49:06;3.50;99.90
10660;DHT22;5378;53.206;13.316;2023-03-01T17:51:53;3.50;99.90
10660;DHT22;5378;53.206;13.316;2023-03-01T17:54:40;3.30;99.90
10660;DHT22;5378;53.206;13.316;2023-03-01T17:57:29;3.10;99.90
10660;DHT22;5378;53.206;13.316;2023-03-01T18:00:17;3.20;99.90
10660;DHT22;5378;53.206;13.316;2023-03-01T18:03:04;3.10;99.90
10660;DHT22;5378;53.206;13.316;2023-03-01T18:05:51;3.00;99.90
10660;DHT22;5378;53.206;13.316;2023-03-01T18:08:38;3.00;99.90